createdAt,value
2023-05-19T00:00:48.178Z,200.42
2023-05-19T00:01:46.888Z,202.51
2023-05-19T00:02:46.996Z,197.92
2023-05-19T00:03:46.938Z,197.13
2023-05-19T00:04:46.973Z,200.70
2023-05-19T00:05:47.032Z,197.92
2023-05-19T00:06:47.043Z,195.56
2023-05-19T00:07:47.078Z,201.39
2023-05-19T00:08:47.106Z,201.21
2023-05-19T00:09:47.159Z,203.32
2023-05-19T00:10:47.193Z,198.54
2023-05-19T00:11:47.216Z,195.99
2023-05-19T00:12:47.243Z,195.34
2023-05-19T00:13:47.278Z,198.72
2023-05-19T00:14:47.319Z,202.12
2023-05-19T00:15:47.364Z,201.49
2023-05-19T00:16:47.364Z,199.67
2023-05-19T00:17:47.482Z,201.54
2023-05-19T00:18:47.463Z,205.28
2023-05-19T00:19:47.474Z,203.24
2023-05-19T00:20:47.499Z,201.23
2023-05-19T00:21:47.551Z,204.26
2023-05-19T00:22:47.571Z,203.56
2023-05-19T00:23:47.602Z,197.79
2023-05-19T00:24:47.640Z,201.85
2023-05-19T00:25:47.660Z,206.57
2023-05-19T00:26:47.684Z,201.93
2023-05-19T00:27:47.730Z,202.08
2023-05-19T00:28:47.761Z,204.53
2023-05-19T00:29:47.796Z,204.31
2023-05-19T00:30:47.851Z,209.75
2023-05-19T00:31:47.967Z,208.58
2023-05-19T00:32:47.965Z,208.85
2023-05-19T00:33:47.955Z,211.47
2023-05-19T00:34:47.979Z,205.33
2023-05-19T00:35:48.015Z,206.47
2023-05-19T00:36:48.037Z,206.11
2023-05-19T00:37:48.054Z,209.46
2023-05-19T00:38:48.097Z,210.23
2023-05-19T00:39:48.116Z,205.12
2023-05-19T00:40:48.166Z,210.90
2023-05-19T00:41:48.178Z,209.24
2023-05-19T00:42:48.206Z,213.18
2023-05-19T00:43:48.249Z,209.00
2023-05-19T00:44:48.286Z,208.05
2023-05-19T00:45:48.301Z,207.11
2023-05-19T00:46:48.357Z,209.01
2023-05-19T00:47:48.405Z,211.54
2023-05-19T00:48:48.397Z,207.80
2023-05-19T00:49:48.455Z,206.53
2023-05-19T00:50:48.505Z,210.14
2023-05-19T00:51:48.522Z,209.00
2023-05-19T00:52:48.535Z,205.97
2023-05-19T00:53:48.640Z,213.53
2023-05-19T00:54:48.610Z,211.36
2023-05-19T00:55:48.662Z,214.52
2023-05-19T00:56:48.698Z,212.43
2023-05-19T00:57:48.720Z,214.19
2023-05-19T00:58:48.750Z,216.63
2023-05-19T00:59:48.782Z,215.30
2023-05-19T01:00:48.840Z,216.56
2023-05-19T01:01:48.829Z,215.60
2023-05-19T01:02:48.914Z,219.97
2023-05-19T01:03:48.964Z,218.96
2023-05-19T01:04:48.937Z,217.32
2023-05-19T01:05:48.945Z,212.59
2023-05-19T01:06:48.985Z,215.52
2023-05-19T01:07:49.007Z,217.66
2023-05-19T01:08:49.037Z,217.09
2023-05-19T01:09:49.060Z,217.65
2023-05-19T01:10:49.089Z,217.22
2023-05-19T01:11:49.145Z,217.36
2023-05-19T01:12:49.161Z,215.72
2023-05-19T01:13:49.170Z,217.21
2023-05-19T01:14:49.219Z,218.12
2023-05-19T01:15:49.225Z,214.57
2023-05-19T01:16:49.362Z,220.45
2023-05-19T01:17:49.322Z,216.81
2023-05-19T01:18:49.358Z,219.32
2023-05-19T01:19:49.364Z,219.90
2023-05-19T01:20:49.389Z,219.98
2023-05-19T01:21:49.440Z,221.33
2023-05-19T01:22:49.450Z,219.33
2023-05-19T01:23:49.479Z,218.75
2023-05-19T01:24:49.514Z,222.42
2023-05-19T01:25:49.537Z,222.57
2023-05-19T01:26:49.583Z,225.18
2023-05-19T01:27:49.614Z,220.05
2023-05-19T01:28:49.634Z,223.85
2023-05-19T01:29:49.680Z,219.68
2023-05-19T01:30:49.693Z,224.72
2023-05-19T01:31:49.764Z,223.51
2023-05-19T01:32:49.815Z,223.51
2023-05-19T01:33:49.813Z,222.76
2023-05-19T01:34:49.827Z,227.80
2023-05-19T01:35:49.871Z,230.02
2023-05-19T01:36:49.918Z,227.50
2023-05-19T01:37:49.933Z,226.39
2023-05-19T01:38:49.946Z,229.71
2023-05-19T01:39:49.988Z,225.18
2023-05-19T01:40:50.036Z,225.67
2023-05-19T01:41:50.037Z,228.94
2023-05-19T01:42:50.075Z,229.87
2023-05-19T01:43:50.108Z,230.94
2023-05-19T01:44:50.132Z,230.38
2023-05-19T01:45:50.189Z,229.66
2023-05-19T01:46:50.199Z,230.39
2023-05-19T01:47:50.233Z,228.53
2023-05-19T01:48:50.261Z,233.94
2023-05-19T01:49:50.276Z,232.01
2023-05-19T01:50:50.313Z,235.59
2023-05-19T01:51:50.364Z,235.36
2023-05-19T01:52:50.386Z,233.10
2023-05-19T01:53:50.400Z,231.94
2023-05-19T01:54:50.444Z,233.50
2023-05-19T01:55:50.495Z,235.19
2023-05-19T01:56:50.509Z,233.57
2023-05-19T01:57:50.526Z,227.30
2023-05-19T01:58:50.554Z,230.42
2023-05-19T01:59:50.606Z,234.03
2023-05-19T02:00:50.640Z,237.18
2023-05-19T02:01:50.650Z,234.88
2023-05-19T02:02:50.727Z,233.93
2023-05-19T02:03:50.822Z,231.93
2023-05-19T02:04:50.868Z,230.20
2023-05-19T02:05:50.830Z,237.44
2023-05-19T02:06:50.836Z,237.80
2023-05-19T02:07:50.858Z,237.18
2023-05-19T02:08:50.875Z,234.19
2023-05-19T02:09:50.922Z,235.51
2023-05-19T02:10:50.941Z,236.25
2023-05-19T02:11:50.993Z,239.84
2023-05-19T02:12:51.002Z,238.78
2023-05-19T02:13:51.066Z,232.91
2023-05-19T02:14:51.074Z,241.69
2023-05-19T02:15:51.149Z,238.07
2023-05-19T02:16:51.136Z,240.93
2023-05-19T02:17:51.247Z,237.09
2023-05-19T02:18:51.227Z,239.60
2023-05-19T02:19:51.256Z,238.20
2023-05-19T02:20:51.300Z,237.77
2023-05-19T02:21:51.316Z,238.85
2023-05-19T02:22:51.361Z,238.02
2023-05-19T02:23:51.406Z,239.02
2023-05-19T02:24:51.476Z,241.03
2023-05-19T02:25:51.458Z,239.99
2023-05-19T02:26:51.502Z,238.17
2023-05-19T02:27:51.528Z,242.44
2023-05-19T02:28:51.558Z,244.36
2023-05-19T02:29:51.610Z,239.67
2023-05-19T02:30:51.647Z,239.98
2023-05-19T02:31:51.771Z,241.25
2023-05-19T02:32:51.732Z,242.47
2023-05-19T02:33:51.792Z,235.37
2023-05-19T02:34:51.797Z,242.15
2023-05-19T02:35:51.841Z,241.24
2023-05-19T02:36:51.875Z,241.28
2023-05-19T02:37:51.910Z,242.09
2023-05-19T02:38:51.947Z,241.61
2023-05-19T02:39:51.980Z,239.67
2023-05-19T02:40:52.025Z,242.21
2023-05-19T02:41:52.066Z,243.33
2023-05-19T02:42:52.179Z,242.39
2023-05-19T02:43:52.131Z,246.36
2023-05-19T02:44:52.159Z,246.27
2023-05-19T02:45:52.196Z,248.24
2023-05-19T02:46:52.329Z,240.07
2023-05-19T02:47:52.323Z,241.79
2023-05-19T02:48:52.316Z,242.78
2023-05-19T02:49:52.343Z,242.97
2023-05-19T02:50:52.398Z,246.14
2023-05-19T02:51:52.437Z,245.10
2023-05-19T02:52:52.455Z,245.66
2023-05-19T02:53:52.509Z,249.47
2023-05-19T02:54:52.546Z,247.55
2023-05-19T02:55:52.585Z,245.26
2023-05-19T02:56:52.633Z,242.40
2023-05-19T02:57:52.679Z,246.55
2023-05-19T02:58:52.701Z,244.01
2023-05-19T02:59:52.737Z,243.36
2023-05-19T03:00:52.756Z,242.48
2023-05-19T03:01:52.836Z,241.15
2023-05-19T03:02:52.913Z,241.46
2023-05-19T03:03:53.033Z,241.83
2023-05-19T03:04:52.926Z,244.46
2023-05-19T03:05:52.960Z,247.58
2023-05-19T03:06:52.981Z,243.24
2023-05-19T03:07:53.011Z,240.47
2023-05-19T03:08:53.055Z,243.17
2023-05-19T03:09:53.090Z,243.35
2023-05-19T03:10:53.112Z,244.72
2023-05-19T03:11:53.174Z,243.42
2023-05-19T03:12:53.185Z,242.38
2023-05-19T03:13:53.236Z,242.98
2023-05-19T03:14:53.272Z,246.29
2023-05-19T03:15:53.387Z,245.09
2023-05-19T03:16:53.600Z,247.57
2023-05-19T03:17:53.437Z,246.58
2023-05-19T03:18:53.460Z,246.17
2023-05-19T03:19:53.471Z,245.78
2023-05-19T03:20:53.513Z,244.49
2023-05-19T03:21:53.574Z,245.57
2023-05-19T03:22:53.582Z,248.37
2023-05-19T03:23:53.622Z,247.05
2023-05-19T03:24:53.706Z,247.54
2023-05-19T03:25:53.728Z,249.32
2023-05-19T03:26:53.746Z,242.52
2023-05-19T03:27:53.777Z,247.01
2023-05-19T03:28:53.813Z,247.47
2023-05-19T03:29:53.844Z,247.86
2023-05-19T03:30:53.880Z,250.00
2023-05-19T03:31:53.920Z,245.40
2023-05-19T03:32:54.046Z,243.20
2023-05-19T03:33:54.008Z,244.10
2023-05-19T03:34:54.037Z,245.67
2023-05-19T03:35:54.076Z,245.64
2023-05-19T03:36:54.093Z,247.32
2023-05-19T03:37:54.125Z,247.05
2023-05-19T03:38:54.172Z,243.22
2023-05-19T03:39:54.192Z,243.17
2023-05-19T03:40:54.233Z,246.74
2023-05-19T03:41:54.265Z,246.74
2023-05-19T03:42:54.294Z,248.70
2023-05-19T03:43:54.356Z,246.45
2023-05-19T03:44:54.371Z,246.16
2023-05-19T03:45:54.472Z,247.05
2023-05-19T03:46:54.474Z,246.14
2023-05-19T03:47:54.538Z,247.49
2023-05-19T03:48:54.524Z,244.21
2023-05-19T03:49:54.538Z,244.77
2023-05-19T03:50:54.594Z,246.54
2023-05-19T03:51:54.626Z,246.82
2023-05-19T03:52:54.673Z,246.46
2023-05-19T03:53:54.703Z,245.33
2023-05-19T03:54:54.776Z,249.83
2023-05-19T03:55:54.775Z,244.86
2023-05-19T03:56:54.839Z,247.11
2023-05-19T03:57:54.876Z,242.21
2023-05-19T03:58:54.912Z,247.47
2023-05-19T03:59:54.946Z,246.49
2023-05-19T04:00:55.006Z,248.14
2023-05-19T04:01:55.126Z,246.13
2023-05-19T04:02:55.099Z,244.12
2023-05-19T04:03:55.203Z,246.04
2023-05-19T04:04:55.304Z,240.96
2023-05-19T04:05:55.204Z,240.92
2023-05-19T04:06:55.235Z,244.02
2023-05-19T04:07:55.287Z,242.36
2023-05-19T04:08:55.330Z,243.31
2023-05-19T04:09:55.348Z,243.48
2023-05-19T04:10:55.417Z,244.12
2023-05-19T04:11:55.454Z,246.57
2023-05-19T04:12:55.485Z,243.21
2023-05-19T04:13:55.513Z,245.66
2023-05-19T04:14:55.553Z,246.44
2023-05-19T04:15:55.630Z,244.34
2023-05-19T04:16:55.632Z,248.18
2023-05-19T04:17:55.683Z,248.53
2023-05-19T04:18:55.755Z,244.05
2023-05-19T04:19:55.756Z,244.51
2023-05-19T04:20:55.781Z,248.59
2023-05-19T04:21:55.815Z,247.25
2023-05-19T04:22:55.854Z,244.99
2023-05-19T04:23:55.897Z,245.55
2023-05-19T04:24:55.924Z,244.89
2023-05-19T04:25:55.969Z,242.63
2023-05-19T04:26:56.010Z,242.29
2023-05-19T04:27:56.033Z,247.01
2023-05-19T04:28:56.060Z,246.56
2023-05-19T04:29:56.149Z,246.73
2023-05-19T04:30:56.179Z,245.75
2023-05-19T04:31:56.168Z,248.69
2023-05-19T04:32:56.285Z,247.73
2023-05-19T04:33:56.246Z,246.01
2023-05-19T04:34:56.262Z,243.25
2023-05-19T04:35:56.314Z,240.39
2023-05-19T04:36:56.355Z,241.01
2023-05-19T04:37:56.373Z,245.61
2023-05-19T04:38:56.401Z,244.32
2023-05-19T04:39:56.443Z,245.82
2023-05-19T04:40:56.456Z,245.74
2023-05-19T04:41:56.503Z,244.38
2023-05-19T04:42:56.516Z,245.04
2023-05-19T04:43:56.544Z,238.18
2023-05-19T04:44:56.593Z,241.24
2023-05-19T04:45:56.618Z,243.10
2023-05-19T04:46:56.702Z,237.90
2023-05-19T04:47:56.690Z,242.21
2023-05-19T04:48:56.713Z,237.49
2023-05-19T04:49:56.731Z,236.94
2023-05-19T04:50:56.774Z,230.85
2023-05-19T04:51:56.772Z,234.82
2023-05-19T04:52:56.799Z,231.98
2023-05-19T04:53:56.783Z,231.45
2023-05-19T04:54:56.783Z,229.68
2023-05-19T04:55:56.832Z,225.44
2023-05-19T04:56:56.892Z,222.06
2023-05-19T04:57:56.954Z,218.97
2023-05-19T04:58:57.002Z,208.56
2023-05-19T04:59:57.009Z,209.70
2023-05-19T05:00:57.053Z,212.25
2023-05-19T05:01:57.193Z,213.44
2023-05-19T05:02:57.222Z,211.07
2023-05-19T05:03:57.185Z,212.71
2023-05-19T05:04:57.215Z,210.51
2023-05-19T05:05:57.262Z,212.68
2023-05-19T05:06:57.316Z,208.47
2023-05-19T05:07:57.386Z,212.53
2023-05-19T05:08:57.444Z,210.35
2023-05-19T05:09:57.531Z,207.69
2023-05-19T05:10:57.510Z,206.90
2023-05-19T05:11:57.523Z,208.35
2023-05-19T05:12:57.520Z,205.68
2023-05-19T05:13:57.512Z,204.44
2023-05-19T05:14:57.503Z,206.36
2023-05-19T05:15:57.532Z,204.80
2023-05-19T05:16:57.527Z,210.69
2023-05-19T05:17:57.561Z,209.28
2023-05-19T05:18:57.574Z,208.53
2023-05-19T05:19:57.530Z,210.13
2023-05-19T05:20:57.532Z,209.67
2023-05-19T05:21:57.538Z,212.88
2023-05-19T05:22:57.526Z,212.19
2023-05-19T05:23:57.538Z,212.37
2023-05-19T05:24:57.574Z,211.44
2023-05-19T05:25:57.556Z,213.88
2023-05-19T05:26:57.573Z,214.49
2023-05-19T05:27:57.566Z,211.39
2023-05-19T05:28:57.596Z,214.74
2023-05-19T05:29:59.198Z,216.62
2023-05-19T05:30:57.614Z,221.41
2023-05-19T05:31:57.712Z,220.15
2023-05-19T05:32:57.685Z,218.30
2023-05-19T05:33:57.626Z,218.86
2023-05-19T05:34:57.645Z,217.99
2023-05-19T05:35:57.640Z,215.50
2023-05-19T05:36:57.670Z,216.30
2023-05-19T05:37:57.673Z,215.39
2023-05-19T05:38:57.697Z,216.51
2023-05-19T05:39:57.664Z,212.49
2023-05-19T05:40:57.679Z,215.87
2023-05-19T05:41:57.694Z,213.33
2023-05-19T05:42:57.682Z,214.36
2023-05-19T05:43:57.702Z,208.67
2023-05-19T05:44:57.720Z,209.04
2023-05-19T05:45:57.771Z,213.68
2023-05-19T05:46:57.768Z,216.95
2023-05-19T05:47:57.847Z,213.51
2023-05-19T05:48:57.849Z,217.57
2023-05-19T05:49:57.912Z,212.87
2023-05-19T05:50:57.983Z,214.87
2023-05-19T05:52:05.766Z,210.41
2023-05-19T05:52:59.009Z,210.61
2023-05-19T05:53:58.004Z,208.24
2023-05-19T05:54:58.019Z,208.50
2023-05-19T05:55:57.992Z,208.16
2023-05-19T05:56:58.005Z,205.43
2023-05-19T05:57:57.995Z,209.80
2023-05-19T05:58:57.985Z,206.56
2023-05-19T05:59:57.989Z,202.65
2023-05-19T06:00:58.017Z,200.42
2023-05-19T06:01:58.062Z,201.90
2023-05-19T06:02:58.127Z,202.44
2023-05-19T06:03:58.164Z,205.09
2023-05-19T06:04:58.248Z,203.13
2023-05-19T06:05:58.321Z,199.78
2023-05-19T06:06:58.371Z,201.05
2023-05-19T06:07:58.388Z,202.47
2023-05-19T06:08:58.438Z,199.73
2023-05-19T06:09:58.501Z,199.06
2023-05-19T06:10:58.512Z,204.19
2023-05-19T06:11:58.543Z,204.80
2023-05-19T06:12:58.596Z,210.37
2023-05-19T06:13:58.610Z,202.32
2023-05-19T06:14:58.648Z,202.86
2023-05-19T06:16:00.505Z,205.10
2023-05-19T06:16:58.700Z,207.07
2023-05-19T06:17:58.782Z,204.40
2023-05-19T06:18:58.702Z,203.18
2023-05-19T06:19:58.673Z,199.23
2023-05-19T06:20:58.659Z,197.15
2023-05-19T06:21:58.656Z,194.29
2023-05-19T06:22:58.650Z,186.76
2023-05-19T06:23:58.644Z,184.48
2023-05-19T06:24:58.649Z,184.54
2023-05-19T06:25:58.624Z,188.88
2023-05-19T06:26:58.636Z,187.67
2023-05-19T06:27:58.611Z,192.21
2023-05-19T06:28:58.601Z,183.50
2023-05-19T06:29:58.610Z,185.20
2023-05-19T06:30:58.623Z,190.50
2023-05-19T06:31:58.687Z,188.62
2023-05-19T06:32:58.601Z,186.48
2023-05-19T06:33:58.579Z,182.96
2023-05-19T06:34:58.580Z,187.02
2023-05-19T06:35:58.558Z,193.12
2023-05-19T06:36:58.556Z,187.53
2023-05-19T06:37:58.555Z,190.86
2023-05-19T06:38:59.640Z,187.95
2023-05-19T06:39:58.544Z,185.23
2023-05-19T06:40:58.514Z,184.02
2023-05-19T06:41:58.525Z,186.73
2023-05-19T06:42:58.509Z,193.11
2023-05-19T06:43:58.498Z,192.08
2023-05-19T06:44:58.485Z,190.38
2023-05-19T06:45:58.533Z,183.68
2023-05-19T06:46:58.682Z,176.38
2023-05-19T06:47:58.706Z,172.72
2023-05-19T06:48:58.686Z,168.53
2023-05-19T06:49:58.714Z,172.55
2023-05-19T06:50:58.776Z,171.71
2023-05-19T06:51:58.819Z,169.67
2023-05-19T06:52:58.860Z,169.95
2023-05-19T06:53:58.897Z,174.67
2023-05-19T06:54:58.937Z,178.88
2023-05-19T06:56:00.237Z,172.44
2023-05-19T06:56:59.006Z,174.91
2023-05-19T06:57:59.059Z,183.44
2023-05-19T06:58:59.112Z,175.90
2023-05-19T06:59:59.139Z,183.66
2023-05-19T07:00:59.206Z,177.05
2023-05-19T07:01:59.292Z,177.85
2023-05-19T07:02:59.324Z,179.88
2023-05-19T07:03:59.538Z,181.47
2023-05-19T07:04:59.400Z,178.58
2023-05-19T07:05:59.463Z,181.69
2023-05-19T07:06:59.487Z,179.84
2023-05-19T07:07:59.549Z,187.28
2023-05-19T07:08:59.603Z,185.27
2023-05-19T07:09:59.662Z,185.87
2023-05-19T07:10:59.708Z,191.38
2023-05-19T07:11:59.762Z,190.04
2023-05-19T07:12:59.821Z,195.17
2023-05-19T07:13:59.863Z,200.05
2023-05-19T07:14:59.902Z,196.23
2023-05-19T07:15:59.982Z,194.34
2023-05-19T07:16:59.977Z,189.28
2023-05-19T07:18:00.115Z,186.60
2023-05-19T07:19:00.215Z,182.99
2023-05-19T07:20:00.161Z,182.35
2023-05-19T07:21:00.158Z,182.73
2023-05-19T07:22:00.195Z,179.42
2023-05-19T07:23:00.253Z,181.79
2023-05-19T07:24:00.280Z,175.60
2023-05-19T07:25:00.316Z,174.87
2023-05-19T07:26:00.357Z,172.32
2023-05-19T07:27:00.390Z,170.78
2023-05-19T07:28:00.444Z,168.17
2023-05-19T07:29:00.482Z,160.14
2023-05-19T07:30:00.499Z,159.61
2023-05-19T07:31:00.630Z,162.06
2023-05-19T07:32:00.635Z,155.41
2023-05-19T07:33:00.679Z,155.69
2023-05-19T07:34:00.668Z,155.98
2023-05-19T07:35:00.727Z,156.40
2023-05-19T07:36:00.760Z,156.47
2023-05-19T07:37:00.792Z,160.54
2023-05-19T07:38:00.843Z,156.67
2023-05-19T07:39:00.937Z,151.05
2023-05-19T07:40:00.913Z,148.47
2023-05-19T07:41:00.947Z,146.25
2023-05-19T07:42:00.978Z,145.23
2023-05-19T07:43:01.008Z,143.69
2023-05-19T07:44:01.038Z,143.17
2023-05-19T07:45:01.085Z,142.27
2023-05-19T07:46:01.118Z,142.64
2023-05-19T07:47:01.230Z,139.67
2023-05-19T07:48:01.214Z,141.00
2023-05-19T07:49:01.192Z,144.45
2023-05-19T07:50:01.225Z,143.59
2023-05-19T07:51:01.257Z,151.19
2023-05-19T07:52:01.268Z,153.18
2023-05-19T07:53:01.312Z,155.83
2023-05-19T07:54:01.313Z,159.40
2023-05-19T07:55:01.348Z,159.73
2023-05-19T07:56:01.359Z,157.91
2023-05-19T07:57:01.384Z,157.68
2023-05-19T07:58:01.395Z,159.76
2023-05-19T07:59:01.415Z,163.37
2023-05-19T08:00:01.436Z,160.14
2023-05-19T08:01:01.468Z,162.38
2023-05-19T08:02:01.522Z,158.92
2023-05-19T08:03:01.592Z,161.44
2023-05-19T08:04:01.538Z,159.71
2023-05-19T08:05:01.513Z,161.09
2023-05-19T08:06:01.543Z,161.67
2023-05-19T08:07:01.534Z,166.10
2023-05-19T08:08:01.543Z,163.17
2023-05-19T08:09:01.557Z,161.23
2023-05-19T08:10:01.613Z,162.05
2023-05-19T08:11:01.724Z,159.17
2023-05-19T08:12:01.821Z,164.54
2023-05-19T08:13:01.813Z,168.77
2023-05-19T08:14:01.813Z,171.53
2023-05-19T08:15:02.112Z,169.85
2023-05-19T08:16:01.840Z,169.31
2023-05-19T08:17:01.907Z,174.43
2023-05-19T08:18:01.942Z,171.33
2023-05-19T08:19:02.072Z,170.75
2023-05-19T08:20:01.913Z,169.75
2023-05-19T08:21:01.906Z,167.20
2023-05-19T08:22:01.953Z,171.97
2023-05-19T08:23:02.009Z,174.49
2023-05-19T08:24:02.014Z,172.31
2023-05-19T08:25:02.011Z,166.44
2023-05-19T08:26:02.021Z,165.65
2023-05-19T08:27:02.005Z,167.66
2023-05-19T08:28:02.003Z,165.86
2023-05-19T08:29:02.077Z,169.52
2023-05-19T08:30:02.167Z,169.46
2023-05-19T08:31:02.204Z,169.44
2023-05-19T08:32:02.173Z,167.94
2023-05-19T08:33:02.251Z,168.65
2023-05-19T08:34:02.202Z,168.21
2023-05-19T08:35:02.187Z,170.46
2023-05-19T08:36:02.266Z,168.18
2023-05-19T08:37:02.278Z,168.25
2023-05-19T08:38:02.291Z,171.88
2023-05-19T08:39:02.302Z,171.25
2023-05-19T08:40:02.318Z,171.67
2023-05-19T08:41:02.315Z,174.09
2023-05-19T08:42:02.394Z,175.44
2023-05-19T08:43:02.376Z,177.52
2023-05-19T08:44:02.359Z,178.17
2023-05-19T08:45:02.389Z,176.04
2023-05-19T08:46:02.368Z,174.39
2023-05-19T08:47:02.429Z,177.59
2023-05-19T08:48:02.514Z,176.25
2023-05-19T08:49:02.434Z,179.65
2023-05-19T08:50:02.467Z,182.44
2023-05-19T08:51:02.433Z,182.48
2023-05-19T08:52:02.435Z,186.19
2023-05-19T08:53:02.451Z,185.21
2023-05-19T08:54:02.509Z,181.14
2023-05-19T08:55:02.596Z,180.44
2023-05-19T08:56:02.690Z,182.23
2023-05-19T08:57:02.806Z,178.82
2023-05-19T08:58:02.872Z,176.88
2023-05-19T08:59:02.868Z,183.47
2023-05-19T09:00:02.876Z,183.98
2023-05-19T09:01:02.910Z,184.63
2023-05-19T09:02:02.875Z,182.89
2023-05-19T09:04:02.964Z,180.43
2023-05-19T09:05:02.946Z,175.61
2023-05-19T09:06:02.889Z,176.42
2023-05-19T09:07:02.926Z,175.53
2023-05-19T09:08:02.861Z,173.90
2023-05-19T09:09:02.806Z,168.95
2023-05-19T09:10:02.817Z,167.57
2023-05-19T09:11:02.803Z,166.78
2023-05-19T09:12:02.815Z,165.57
2023-05-19T09:13:02.790Z,167.60
2023-05-19T09:14:02.767Z,169.46
2023-05-19T09:15:02.779Z,169.85
2023-05-19T09:16:02.784Z,170.20
2023-05-19T09:17:02.845Z,166.96
2023-05-19T09:18:02.861Z,161.68
2023-05-19T09:19:02.760Z,163.70
2023-05-19T09:20:02.748Z,160.00
2023-05-19T09:21:03.024Z,159.10
2023-05-19T09:22:02.720Z,162.07
2023-05-19T09:23:02.849Z,162.29
2023-05-19T09:24:02.718Z,168.26
2023-05-19T09:25:02.714Z,168.65
2023-05-19T09:26:02.694Z,165.52
2023-05-19T09:27:02.703Z,164.10
2023-05-19T09:28:02.681Z,166.69
2023-05-19T09:29:02.695Z,162.46
2023-05-19T09:30:02.661Z,161.21
2023-05-19T09:31:02.666Z,157.89
2023-05-19T09:32:02.671Z,154.66
2023-05-19T09:33:02.731Z,159.27
2023-05-19T09:34:02.668Z,160.44
2023-05-19T09:35:02.635Z,162.27
2023-05-19T09:36:02.665Z,159.58
2023-05-19T09:37:02.638Z,160.52
2023-05-19T09:38:02.613Z,163.53
2023-05-19T09:39:02.602Z,159.59
2023-05-19T09:40:02.611Z,162.16
2023-05-19T09:41:02.579Z,162.54
2023-05-19T09:42:02.576Z,159.98
2023-05-19T09:43:02.571Z,160.58
2023-05-19T09:44:02.577Z,163.43
2023-05-19T09:45:02.570Z,163.30
2023-05-19T09:46:02.565Z,164.13
2023-05-19T09:47:02.550Z,161.80
2023-05-19T09:48:02.573Z,155.47
2023-05-19T09:49:02.528Z,155.40
2023-05-19T09:50:02.542Z,154.31
2023-05-19T09:51:02.522Z,151.25
2023-05-19T09:52:02.514Z,152.81
2023-05-19T09:53:02.520Z,154.48
2023-05-19T09:54:02.497Z,154.08
2023-05-19T09:55:02.582Z,153.10
2023-05-19T09:56:02.485Z,152.60
2023-05-19T09:57:02.511Z,148.90
2023-05-19T09:58:02.471Z,144.00
2023-05-19T09:59:02.475Z,153.66
2023-05-19T10:00:02.462Z,155.72
2023-05-19T10:01:02.493Z,155.52
2023-05-19T10:02:02.944Z,153.48
2023-05-19T10:03:02.458Z,155.85
2023-05-19T10:04:03.691Z,151.14
2023-05-19T10:05:02.447Z,150.73
2023-05-19T10:06:02.428Z,154.17
2023-05-19T10:07:02.416Z,154.68
2023-05-19T10:08:02.426Z,152.95
2023-05-19T10:09:02.396Z,149.35
2023-05-19T10:10:02.402Z,143.01
2023-05-19T10:11:02.388Z,146.68
2023-05-19T10:12:02.378Z,147.96
2023-05-19T10:13:02.364Z,149.20
2023-05-19T10:14:02.388Z,151.07
2023-05-19T10:15:02.362Z,151.85
2023-05-19T10:16:02.563Z,151.90
2023-05-19T10:17:02.355Z,142.13
2023-05-19T10:18:02.418Z,135.51
2023-05-19T10:19:02.407Z,143.46
2023-05-19T10:20:02.358Z,144.28
2023-05-19T10:21:02.319Z,142.42
2023-05-19T10:22:02.320Z,139.93
2023-05-19T10:23:02.325Z,141.98
2023-05-19T10:24:02.355Z,141.26
2023-05-19T10:25:02.363Z,138.71
2023-05-19T10:26:02.371Z,134.95
2023-05-19T10:27:02.459Z,135.87
2023-05-19T10:28:02.412Z,136.60
2023-05-19T10:29:02.420Z,136.21
2023-05-19T10:30:02.512Z,136.16
2023-05-19T10:31:02.583Z,137.74
2023-05-19T10:32:02.608Z,140.35
2023-05-19T10:33:02.615Z,142.50
2023-05-19T10:34:02.589Z,137.41
2023-05-19T10:35:02.603Z,139.16
2023-05-19T10:36:02.613Z,140.58
2023-05-19T10:37:02.655Z,145.07
2023-05-19T10:38:02.646Z,146.95
2023-05-19T10:39:02.640Z,148.82
2023-05-19T10:40:02.638Z,144.69
2023-05-19T10:41:02.636Z,140.22
2023-05-19T10:42:02.636Z,141.44
2023-05-19T10:43:02.733Z,141.26
2023-05-19T10:44:02.701Z,141.62
2023-05-19T10:45:02.704Z,138.54
2023-05-19T10:46:02.689Z,133.34
2023-05-19T10:47:02.835Z,133.25
2023-05-19T10:48:02.748Z,133.30
2023-05-19T10:49:02.737Z,134.06
2023-05-19T10:50:02.803Z,133.38
2023-05-19T10:51:02.899Z,132.26
2023-05-19T10:52:03.064Z,129.17
2023-05-19T10:53:03.099Z,126.19
2023-05-19T10:54:03.169Z,123.97
2023-05-19T10:55:03.283Z,120.97
2023-05-19T10:56:03.385Z,124.01
2023-05-19T10:57:03.384Z,124.35
2023-05-19T10:58:03.374Z,127.23
2023-05-19T10:59:03.415Z,127.59
2023-05-19T11:00:03.371Z,123.94
2023-05-19T11:01:03.360Z,120.88
2023-05-19T11:02:03.518Z,121.64
2023-05-19T11:03:03.477Z,119.37
2023-05-19T11:04:03.580Z,115.86
2023-05-19T11:05:03.608Z,110.96
2023-05-19T11:06:03.681Z,109.71
2023-05-19T11:07:03.901Z,108.18
2023-05-19T11:08:03.860Z,105.88
2023-05-19T11:09:03.884Z,107.91
2023-05-19T11:10:03.900Z,107.49
2023-05-19T11:11:03.918Z,109.16
2023-05-19T11:12:03.966Z,107.01
2023-05-19T11:13:03.957Z,107.57
2023-05-19T11:14:03.973Z,105.59
2023-05-19T11:15:03.991Z,98.49
2023-05-19T11:16:04.059Z,98.79
2023-05-19T11:17:04.234Z,95.89
2023-05-19T11:18:04.220Z,104.16
2023-05-19T11:19:04.305Z,109.43
2023-05-19T11:20:04.374Z,99.94
2023-05-19T11:21:04.487Z,96.65
2023-05-19T11:22:04.484Z,98.22
2023-05-19T11:23:04.547Z,98.06
2023-05-19T11:24:04.529Z,103.43
2023-05-19T11:25:04.517Z,110.39
2023-05-19T11:26:04.507Z,113.41
2023-05-19T11:27:04.531Z,110.91
2023-05-19T11:28:04.577Z,105.21
2023-05-19T11:29:04.585Z,101.17
2023-05-19T11:30:04.632Z,94.80
2023-05-19T11:31:04.649Z,100.06
2023-05-19T11:32:04.694Z,100.44
2023-05-19T11:33:04.648Z,110.28
2023-05-19T11:34:04.683Z,115.45
2023-05-19T11:35:04.710Z,114.24
2023-05-19T11:36:04.754Z,115.26
2023-05-19T11:37:04.766Z,112.65
2023-05-19T11:38:04.789Z,107.47
2023-05-19T11:39:04.805Z,102.75
2023-05-19T11:40:04.816Z,96.28
2023-05-19T11:41:04.827Z,98.66
2023-05-19T11:42:04.833Z,95.33
2023-05-19T11:43:04.844Z,100.92
2023-05-19T11:44:04.933Z,111.02
2023-05-19T11:45:05.033Z,113.74
2023-05-19T11:46:05.068Z,111.12
2023-05-19T11:47:05.017Z,104.78
2023-05-19T11:48:05.079Z,100.34
2023-05-19T11:49:05.072Z,99.67
2023-05-19T11:50:05.091Z,102.65
2023-05-19T11:51:05.106Z,98.86
2023-05-19T11:52:05.222Z,103.76
2023-05-19T11:53:05.294Z,97.91
2023-05-19T11:54:05.357Z,98.76
2023-05-19T11:55:05.369Z,100.92
2023-05-19T11:56:05.403Z,107.51
2023-05-19T11:57:05.404Z,105.83
2023-05-19T11:58:06.037Z,105.03
2023-05-19T11:59:05.437Z,100.96
2023-05-19T12:00:05.455Z,99.82
2023-05-19T12:01:05.476Z,99.43
2023-05-19T12:02:05.473Z,94.95
2023-05-19T12:03:05.827Z,96.34
2023-05-19T12:04:05.646Z,92.81
2023-05-19T12:05:05.625Z,93.73
2023-05-19T12:06:05.637Z,95.03
2023-05-19T12:07:05.600Z,95.13
2023-05-19T12:08:05.632Z,97.65
2023-05-19T12:09:05.673Z,97.47
2023-05-19T12:10:05.729Z,95.63
2023-05-19T12:11:05.755Z,94.64
2023-05-19T12:12:05.843Z,93.72
2023-05-19T12:13:05.900Z,90.01
2023-05-19T12:14:05.953Z,86.70
2023-05-19T12:15:05.971Z,93.64
2023-05-19T12:16:06.051Z,97.23
2023-05-19T12:17:06.050Z,93.16
2023-05-19T12:18:06.100Z,93.90
2023-05-19T12:19:06.190Z,90.95
2023-05-19T12:20:06.144Z,94.38
2023-05-19T12:21:06.176Z,93.36
2023-05-19T12:22:06.191Z,97.39
2023-05-19T12:23:06.241Z,98.90
2023-05-19T12:24:06.316Z,102.28
2023-05-19T12:25:06.334Z,98.64
2023-05-19T12:26:06.385Z,98.20
2023-05-19T12:27:06.446Z,102.02
2023-05-19T12:28:06.485Z,104.05
2023-05-19T12:29:06.546Z,103.69
2023-05-19T12:30:06.570Z,105.02
2023-05-19T12:31:06.623Z,108.05